sensor_id;sensor_type;location;lat;lon;timestamp;P1;durP1;ratioP1;P2;durP2;ratioP2
51814;SDS011;37874;53.158;6.766;2023-07-02T00:02:22;3.17;;;1.38;;
51814;SDS011;37874;53.158;6.766;2023-07-02T00:04:48;2.65;;;1.20;;
51814;SDS011;37874;53.158;6.766;2023-07-02T00:07:13;3.95;;;1.42;;
51814;SDS011;37874;53.158;6.766;2023-07-02T00:09:40;3.20;;;1.60;;
51814;SDS011;37874;53.158;6.766;2023-07-02T00:12:06;3.10;;;1.40;;
51814;SDS011;37874;53.158;6.766;2023-07-02T00:14:32;3.42;;;1.35;;
51814;SDS011;37874;53.158;6.766;2023-07-02T00:16:58;3.28;;;1.45;;
51814;SDS011;37874;53.158;6.766;2023-07-02T00:19:24;2.92;;;1.42;;
51814;SDS011;37874;53.158;6.766;2023-07-02T00:21:49;4.93;;;2.00;;
51814;SDS011;37874;53.158;6.766;2023-07-02T00:24:15;3.10;;;1.48;;
51814;SDS011;37874;53.158;6.766;2023-07-02T00:26:41;3.70;;;1.77;;
51814;SDS011;37874;53.158;6.766;2023-07-02T00:29:08;3.67;;;1.67;;
51814;SDS011;37874;53.158;6.766;2023-07-02T00:31:34;3.30;;;2.00;;
51814;SDS011;37874;53.158;6.766;2023-07-02T00:34:00;4.45;;;2.00;;
51814;SDS011;37874;53.158;6.766;2023-07-02T00:36:27;3.70;;;1.88;;
51814;SDS011;37874;53.158;6.766;2023-07-02T00:38:56;4.68;;;2.20;;
51814;SDS011;37874;53.158;6.766;2023-07-02T00:41:22;4.15;;;1.98;;
51814;SDS011;37874;53.158;6.766;2023-07-02T00:43:48;5.13;;;2.17;;
51814;SDS011;37874;53.158;6.766;2023-07-02T00:46:14;4.63;;;2.15;;
51814;SDS011;37874;53.158;6.766;2023-07-02T00:48:43;4.20;;;2.22;;
51814;SDS011;37874;53.158;6.766;2023-07-02T00:51:10;4.43;;;2.30;;
51814;SDS011;37874;53.158;6.766;2023-07-02T00:53:37;5.63;;;2.58;;
51814;SDS011;37874;53.158;6.766;2023-07-02T00:56:03;4.57;;;2.25;;
51814;SDS011;37874;53.158;6.766;2023-07-02T00:58:29;5.22;;;2.50;;
51814;SDS011;37874;53.158;6.766;2023-07-02T01:00:55;3.90;;;2.30;;
51814;SDS011;37874;53.158;6.766;2023-07-02T01:03:21;5.22;;;2.67;;
51814;SDS011;37874;53.158;6.766;2023-07-02T01:05:47;5.72;;;2.63;;
51814;SDS011;37874;53.158;6.766;2023-07-02T01:08:12;5.28;;;2.30;;
51814;SDS011;37874;53.158;6.766;2023-07-02T01:10:39;6.50;;;2.72;;
51814;SDS011;37874;53.158;6.766;2023-07-02T01:13:15;6.72;;;2.38;;
51814;SDS011;37874;53.158;6.766;2023-07-02T01:15:46;4.68;;;2.60;;
51814;SDS011;37874;53.158;6.766;2023-07-02T01:18:13;3.92;;;2.17;;
51814;SDS011;37874;53.158;6.766;2023-07-02T01:20:40;4.63;;;2.42;;
51814;SDS011;37874;53.158;6.766;2023-07-02T01:23:06;5.03;;;2.63;;
51814;SDS011;37874;53.158;6.766;2023-07-02T01:25:33;4.72;;;2.60;;
51814;SDS011;37874;53.158;6.766;2023-07-02T01:28:01;4.47;;;2.42;;
51814;SDS011;37874;53.158;6.766;2023-07-02T01:30:29;5.15;;;2.60;;
51814;SDS011;37874;53.158;6.766;2023-07-02T01:32:55;5.70;;;2.80;;
51814;SDS011;37874;53.158;6.766;2023-07-02T01:35:21;4.38;;;2.65;;
51814;SDS011;37874;53.158;6.766;2023-07-02T01:37:46;5.82;;;2.92;;
51814;SDS011;37874;53.158;6.766;2023-07-02T01:40:12;4.72;;;2.58;;
51814;SDS011;37874;53.158;6.766;2023-07-02T01:42:38;6.45;;;3.08;;
51814;SDS011;37874;53.158;6.766;2023-07-02T01:45:04;7.25;;;3.08;;
51814;SDS011;37874;53.158;6.766;2023-07-02T01:47:30;8.52;;;3.63;;
51814;SDS011;37874;53.158;6.766;2023-07-02T01:49:56;6.60;;;3.45;;
51814;SDS011;37874;53.158;6.766;2023-07-02T01:52:21;5.32;;;2.90;;
51814;SDS011;37874;53.158;6.766;2023-07-02T01:54:47;6.97;;;3.22;;
51814;SDS011;37874;53.158;6.766;2023-07-02T01:57:12;6.35;;;3.25;;
51814;SDS011;37874;53.158;6.766;2023-07-02T01:59:38;6.00;;;2.90;;
51814;SDS011;37874;53.158;6.766;2023-07-02T02:02:04;6.72;;;3.40;;
51814;SDS011;37874;53.158;6.766;2023-07-02T02:04:29;5.63;;;3.03;;
51814;SDS011;37874;53.158;6.766;2023-07-02T02:06:55;6.68;;;3.67;;
51814;SDS011;37874;53.158;6.766;2023-07-02T02:09:20;7.63;;;3.35;;
51814;SDS011;37874;53.158;6.766;2023-07-02T02:11:50;6.60;;;3.13;;
51814;SDS011;37874;53.158;6.766;2023-07-02T02:14:17;7.38;;;3.30;;
51814;SDS011;37874;53.158;6.766;2023-07-02T02:16:43;7.32;;;3.22;;
51814;SDS011;37874;53.158;6.766;2023-07-02T02:19:12;7.32;;;3.83;;
51814;SDS011;37874;53.158;6.766;2023-07-02T02:21:39;6.90;;;3.50;;
51814;SDS011;37874;53.158;6.766;2023-07-02T02:24:05;6.32;;;3.13;;
51814;SDS011;37874;53.158;6.766;2023-07-02T02:26:32;5.88;;;3.35;;
51814;SDS011;37874;53.158;6.766;2023-07-02T02:28:58;6.82;;;3.70;;
51814;SDS011;37874;53.158;6.766;2023-07-02T02:31:24;6.78;;;3.50;;
51814;SDS011;37874;53.158;6.766;2023-07-02T02:33:49;8.30;;;3.90;;
51814;SDS011;37874;53.158;6.766;2023-07-02T02:36:15;9.55;;;3.58;;
51814;SDS011;37874;53.158;6.766;2023-07-02T02:38:42;7.75;;;3.35;;
51814;SDS011;37874;53.158;6.766;2023-07-02T02:41:07;7.72;;;3.55;;
51814;SDS011;37874;53.158;6.766;2023-07-02T02:43:33;7.38;;;3.40;;
51814;SDS011;37874;53.158;6.766;2023-07-02T02:45:59;7.40;;;3.70;;
51814;SDS011;37874;53.158;6.766;2023-07-02T02:48:25;7.85;;;3.80;;
51814;SDS011;37874;53.158;6.766;2023-07-02T02:50:50;8.52;;;3.95;;
51814;SDS011;37874;53.158;6.766;2023-07-02T02:53:16;8.95;;;4.00;;
51814;SDS011;37874;53.158;6.766;2023-07-02T02:55:42;7.47;;;3.60;;
51814;SDS011;37874;53.158;6.766;2023-07-02T02:58:07;9.32;;;3.90;;
51814;SDS011;37874;53.158;6.766;2023-07-02T03:00:33;9.70;;;4.00;;
51814;SDS011;37874;53.158;6.766;2023-07-02T03:02:59;10.07;;;4.40;;
51814;SDS011;37874;53.158;6.766;2023-07-02T03:05:24;8.45;;;4.18;;
51814;SDS011;37874;53.158;6.766;2023-07-02T03:07:51;8.65;;;4.05;;
51814;SDS011;37874;53.158;6.766;2023-07-02T03:10:16;8.30;;;4.18;;
51814;SDS011;37874;53.158;6.766;2023-07-02T03:12:42;7.05;;;3.97;;
51814;SDS011;37874;53.158;6.766;2023-07-02T03:15:08;9.57;;;4.50;;
51814;SDS011;37874;53.158;6.766;2023-07-02T03:17:34;9.13;;;3.90;;
51814;SDS011;37874;53.158;6.766;2023-07-02T03:20:00;8.18;;;4.28;;
51814;SDS011;37874;53.158;6.766;2023-07-02T03:22:26;8.25;;;4.40;;
51814;SDS011;37874;53.158;6.766;2023-07-02T03:24:51;8.32;;;3.95;;
51814;SDS011;37874;53.158;6.766;2023-07-02T03:27:17;6.63;;;3.75;;
51814;SDS011;37874;53.158;6.766;2023-07-02T03:29:42;8.00;;;4.28;;
51814;SDS011;37874;53.158;6.766;2023-07-02T03:32:08;7.95;;;4.38;;
51814;SDS011;37874;53.158;6.766;2023-07-02T03:34:33;7.57;;;4.30;;
51814;SDS011;37874;53.158;6.766;2023-07-02T03:36:59;8.68;;;4.10;;
51814;SDS011;37874;53.158;6.766;2023-07-02T03:39:24;8.18;;;4.10;;
51814;SDS011;37874;53.158;6.766;2023-07-02T03:41:50;7.97;;;4.25;;
51814;SDS011;37874;53.158;6.766;2023-07-02T03:44:16;8.13;;;4.30;;
51814;SDS011;37874;53.158;6.766;2023-07-02T03:46:41;7.10;;;3.83;;
51814;SDS011;37874;53.158;6.766;2023-07-02T03:49:07;8.68;;;4.80;;
51814;SDS011;37874;53.158;6.766;2023-07-02T03:51:33;9.00;;;4.32;;
51814;SDS011;37874;53.158;6.766;2023-07-02T03:53:58;9.35;;;4.40;;
51814;SDS011;37874;53.158;6.766;2023-07-02T03:56:24;9.20;;;4.65;;
51814;SDS011;37874;53.158;6.766;2023-07-02T03:58:51;7.03;;;4.00;;
51814;SDS011;37874;53.158;6.766;2023-07-02T04:01:17;10.27;;;4.45;;
51814;SDS011;37874;53.158;6.766;2023-07-02T04:03:49;8.25;;;4.43;;
51814;SDS011;37874;53.158;6.766;2023-07-02T04:06:16;8.43;;;4.30;;
51814;SDS011;37874;53.158;6.766;2023-07-02T04:08:43;9.27;;;4.68;;
51814;SDS011;37874;53.158;6.766;2023-07-02T04:11:09;7.65;;;4.10;;
51814;SDS011;37874;53.158;6.766;2023-07-02T04:13:35;7.95;;;4.90;;
51814;SDS011;37874;53.158;6.766;2023-07-02T04:16:00;6.45;;;3.90;;
51814;SDS011;37874;53.158;6.766;2023-07-02T04:18:26;9.60;;;4.90;;
51814;SDS011;37874;53.158;6.766;2023-07-02T04:20:52;9.20;;;4.72;;
51814;SDS011;37874;53.158;6.766;2023-07-02T04:23:17;8.02;;;4.20;;
51814;SDS011;37874;53.158;6.766;2023-07-02T04:25:43;9.57;;;4.65;;
51814;SDS011;37874;53.158;6.766;2023-07-02T04:28:08;8.23;;;4.28;;
51814;SDS011;37874;53.158;6.766;2023-07-02T04:30:34;7.22;;;4.45;;
51814;SDS011;37874;53.158;6.766;2023-07-02T04:33:00;10.18;;;4.75;;
51814;SDS011;37874;53.158;6.766;2023-07-02T04:35:26;9.25;;;4.93;;
51814;SDS011;37874;53.158;6.766;2023-07-02T04:37:51;9.93;;;5.20;;
51814;SDS011;37874;53.158;6.766;2023-07-02T04:40:17;9.32;;;4.78;;
51814;SDS011;37874;53.158;6.766;2023-07-02T04:42:42;10.13;;;4.78;;
51814;SDS011;37874;53.158;6.766;2023-07-02T04:45:22;10.52;;;4.85;;
51814;SDS011;37874;53.158;6.766;2023-07-02T04:47:51;8.73;;;4.68;;
51814;SDS011;37874;53.158;6.766;2023-07-02T04:50:17;8.70;;;4.55;;
51814;SDS011;37874;53.158;6.766;2023-07-02T04:52:43;8.70;;;4.60;;
51814;SDS011;37874;53.158;6.766;2023-07-02T04:55:09;9.13;;;4.50;;
51814;SDS011;37874;53.158;6.766;2023-07-02T04:57:35;9.80;;;5.10;;
51814;SDS011;37874;53.158;6.766;2023-07-02T05:00:01;9.38;;;4.68;;
51814;SDS011;37874;53.158;6.766;2023-07-02T05:02:29;8.18;;;4.30;;
51814;SDS011;37874;53.158;6.766;2023-07-02T05:04:54;9.10;;;4.63;;
51814;SDS011;37874;53.158;6.766;2023-07-02T05:07:20;10.60;;;4.68;;
51814;SDS011;37874;53.158;6.766;2023-07-02T05:09:45;10.40;;;4.60;;
51814;SDS011;37874;53.158;6.766;2023-07-02T05:12:13;7.93;;;4.63;;
51814;SDS011;37874;53.158;6.766;2023-07-02T05:14:39;8.55;;;4.70;;
51814;SDS011;37874;53.158;6.766;2023-07-02T05:17:04;10.80;;;4.47;;
51814;SDS011;37874;53.158;6.766;2023-07-02T05:19:30;8.25;;;4.35;;
51814;SDS011;37874;53.158;6.766;2023-07-02T05:21:55;8.98;;;4.60;;
51814;SDS011;37874;53.158;6.766;2023-07-02T05:24:21;9.35;;;4.55;;
51814;SDS011;37874;53.158;6.766;2023-07-02T05:26:47;8.93;;;4.90;;
51814;SDS011;37874;53.158;6.766;2023-07-02T05:29:12;7.18;;;4.50;;
51814;SDS011;37874;53.158;6.766;2023-07-02T05:31:39;8.20;;;4.40;;
51814;SDS011;37874;53.158;6.766;2023-07-02T05:34:04;9.02;;;4.85;;
51814;SDS011;37874;53.158;6.766;2023-07-02T05:36:30;9.68;;;4.80;;
51814;SDS011;37874;53.158;6.766;2023-07-02T05:38:56;8.00;;;4.50;;
51814;SDS011;37874;53.158;6.766;2023-07-02T05:41:21;8.38;;;4.22;;
51814;SDS011;37874;53.158;6.766;2023-07-02T05:43:47;9.35;;;4.40;;
51814;SDS011;37874;53.158;6.766;2023-07-02T05:46:13;10.10;;;5.40;;
51814;SDS011;37874;53.158;6.766;2023-07-02T05:48:40;8.60;;;4.68;;
51814;SDS011;37874;53.158;6.766;2023-07-02T05:51:07;10.43;;;4.55;;
51814;SDS011;37874;53.158;6.766;2023-07-02T05:53:33;9.10;;;4.70;;
51814;SDS011;37874;53.158;6.766;2023-07-02T05:55:58;9.00;;;4.50;;
51814;SDS011;37874;53.158;6.766;2023-07-02T05:58:24;12.63;;;5.20;;
51814;SDS011;37874;53.158;6.766;2023-07-02T06:00:50;9.02;;;4.40;;
51814;SDS011;37874;53.158;6.766;2023-07-02T06:03:16;7.90;;;4.70;;
51814;SDS011;37874;53.158;6.766;2023-07-02T06:05:48;9.07;;;4.80;;
51814;SDS011;37874;53.158;6.766;2023-07-02T06:08:15;9.00;;;4.95;;
51814;SDS011;37874;53.158;6.766;2023-07-02T06:10:41;8.20;;;4.18;;
51814;SDS011;37874;53.158;6.766;2023-07-02T06:13:07;7.97;;;4.50;;
51814;SDS011;37874;53.158;6.766;2023-07-02T06:15:33;9.52;;;4.75;;
51814;SDS011;37874;53.158;6.766;2023-07-02T06:17:58;8.63;;;4.15;;
51814;SDS011;37874;53.158;6.766;2023-07-02T06:20:24;7.13;;;4.10;;
51814;SDS011;37874;53.158;6.766;2023-07-02T06:22:49;8.85;;;4.88;;
51814;SDS011;37874;53.158;6.766;2023-07-02T06:25:15;9.23;;;4.80;;
51814;SDS011;37874;53.158;6.766;2023-07-02T06:27:40;9.65;;;4.20;;
51814;SDS011;37874;53.158;6.766;2023-07-02T06:30:06;9.90;;;4.47;;
51814;SDS011;37874;53.158;6.766;2023-07-02T06:32:32;8.13;;;4.80;;
51814;SDS011;37874;53.158;6.766;2023-07-02T06:34:58;8.93;;;4.53;;
51814;SDS011;37874;53.158;6.766;2023-07-02T06:37:23;8.75;;;4.30;;
51814;SDS011;37874;53.158;6.766;2023-07-02T06:39:49;9.95;;;4.80;;
51814;SDS011;37874;53.158;6.766;2023-07-02T06:42:14;10.18;;;4.40;;
51814;SDS011;37874;53.158;6.766;2023-07-02T06:44:40;10.43;;;4.60;;
51814;SDS011;37874;53.158;6.766;2023-07-02T06:47:06;7.68;;;4.20;;
51814;SDS011;37874;53.158;6.766;2023-07-02T06:49:32;6.82;;;4.15;;
51814;SDS011;37874;53.158;6.766;2023-07-02T06:51:58;8.05;;;4.03;;
51814;SDS011;37874;53.158;6.766;2023-07-02T06:54:25;7.63;;;4.22;;
51814;SDS011;37874;53.158;6.766;2023-07-02T06:56:51;6.50;;;3.92;;
51814;SDS011;37874;53.158;6.766;2023-07-02T06:59:20;7.90;;;4.10;;
51814;SDS011;37874;53.158;6.766;2023-07-02T07:01:47;8.95;;;4.65;;
51814;SDS011;37874;53.158;6.766;2023-07-02T07:04:12;7.45;;;3.95;;
51814;SDS011;37874;53.158;6.766;2023-07-02T07:06:38;8.20;;;4.28;;
51814;SDS011;37874;53.158;6.766;2023-07-02T07:09:03;7.55;;;4.13;;
51814;SDS011;37874;53.158;6.766;2023-07-02T07:11:29;8.73;;;4.10;;
51814;SDS011;37874;53.158;6.766;2023-07-02T07:13:55;7.65;;;3.83;;
51814;SDS011;37874;53.158;6.766;2023-07-02T07:16:20;7.97;;;4.00;;
51814;SDS011;37874;53.158;6.766;2023-07-02T07:18:47;7.78;;;4.28;;
51814;SDS011;37874;53.158;6.766;2023-07-02T07:21:12;7.63;;;4.22;;
51814;SDS011;37874;53.158;6.766;2023-07-02T07:23:39;9.23;;;4.18;;
51814;SDS011;37874;53.158;6.766;2023-07-02T07:26:04;8.57;;;4.00;;
51814;SDS011;37874;53.158;6.766;2023-07-02T07:28:30;8.48;;;3.78;;
51814;SDS011;37874;53.158;6.766;2023-07-02T07:30:56;7.97;;;3.90;;
51814;SDS011;37874;53.158;6.766;2023-07-02T07:33:22;9.32;;;4.45;;
51814;SDS011;37874;53.158;6.766;2023-07-02T07:35:47;9.13;;;3.90;;
51814;SDS011;37874;53.158;6.766;2023-07-02T07:38:13;8.85;;;3.85;;
51814;SDS011;37874;53.158;6.766;2023-07-02T07:40:42;7.55;;;3.90;;
51814;SDS011;37874;53.158;6.766;2023-07-02T07:43:08;6.90;;;3.60;;
51814;SDS011;37874;53.158;6.766;2023-07-02T07:45:34;9.25;;;3.90;;
51814;SDS011;37874;53.158;6.766;2023-07-02T07:47:59;7.72;;;3.67;;
51814;SDS011;37874;53.158;6.766;2023-07-02T07:50:25;6.53;;;3.63;;
51814;SDS011;37874;53.158;6.766;2023-07-02T07:52:51;7.68;;;4.10;;
51814;SDS011;37874;53.158;6.766;2023-07-02T07:55:16;6.55;;;3.60;;
51814;SDS011;37874;53.158;6.766;2023-07-02T07:57:42;6.53;;;3.65;;
51814;SDS011;37874;53.158;6.766;2023-07-02T08:00:08;7.22;;;3.65;;
51814;SDS011;37874;53.158;6.766;2023-07-02T08:02:37;6.82;;;3.33;;
51814;SDS011;37874;53.158;6.766;2023-07-02T08:05:03;7.47;;;3.40;;
51814;SDS011;37874;53.158;6.766;2023-07-02T08:07:33;6.50;;;3.60;;
51814;SDS011;37874;53.158;6.766;2023-07-02T08:09:59;6.15;;;3.40;;
51814;SDS011;37874;53.158;6.766;2023-07-02T08:12:25;5.82;;;3.15;;
51814;SDS011;37874;53.158;6.766;2023-07-02T08:14:54;7.88;;;3.80;;
51814;SDS011;37874;53.158;6.766;2023-07-02T08:17:20;6.28;;;3.10;;
51814;SDS011;37874;53.158;6.766;2023-07-02T08:19:46;7.18;;;3.42;;
51814;SDS011;37874;53.158;6.766;2023-07-02T08:22:13;6.60;;;3.40;;
51814;SDS011;37874;53.158;6.766;2023-07-02T08:24:38;7.93;;;3.08;;
51814;SDS011;37874;53.158;6.766;2023-07-02T08:27:04;5.45;;;2.80;;
51814;SDS011;37874;53.158;6.766;2023-07-02T08:29:30;6.35;;;2.95;;
51814;SDS011;37874;53.158;6.766;2023-07-02T08:31:56;8.30;;;3.17;;
51814;SDS011;37874;53.158;6.766;2023-07-02T08:34:22;6.70;;;3.28;;
51814;SDS011;37874;53.158;6.766;2023-07-02T08:36:47;7.40;;;3.00;;
51814;SDS011;37874;53.158;6.766;2023-07-02T08:39:13;6.47;;;3.25;;
51814;SDS011;37874;53.158;6.766;2023-07-02T08:41:43;7.22;;;3.20;;
51814;SDS011;37874;53.158;6.766;2023-07-02T08:44:12;6.18;;;2.90;;
51814;SDS011;37874;53.158;6.766;2023-07-02T08:46:39;7.20;;;3.00;;
51814;SDS011;37874;53.158;6.766;2023-07-02T08:49:06;7.47;;;3.42;;
51814;SDS011;37874;53.158;6.766;2023-07-02T08:51:32;7.32;;;3.22;;
51814;SDS011;37874;53.158;6.766;2023-07-02T08:53:58;6.88;;;3.05;;
51814;SDS011;37874;53.158;6.766;2023-07-02T08:56:24;5.35;;;2.92;;
51814;SDS011;37874;53.158;6.766;2023-07-02T08:58:51;5.57;;;2.72;;
51814;SDS011;37874;53.158;6.766;2023-07-02T09:01:17;5.95;;;3.13;;
51814;SDS011;37874;53.158;6.766;2023-07-02T09:03:43;5.85;;;2.97;;
51814;SDS011;37874;53.158;6.766;2023-07-02T09:06:09;6.60;;;3.20;;
51814;SDS011;37874;53.158;6.766;2023-07-02T09:08:36;7.45;;;2.90;;
51814;SDS011;37874;53.158;6.766;2023-07-02T09:11:20;7.10;;;2.90;;
51814;SDS011;37874;53.158;6.766;2023-07-02T09:13:49;7.38;;;3.33;;
51814;SDS011;37874;53.158;6.766;2023-07-02T09:16:35;4.85;;;2.30;;
51814;SDS011;37874;53.158;6.766;2023-07-02T09:19:05;6.55;;;2.67;;
51814;SDS011;37874;53.158;6.766;2023-07-02T09:24:15;6.13;;;3.10;;
51814;SDS011;37874;53.158;6.766;2023-07-02T09:29:21;5.53;;;2.67;;
51814;SDS011;37874;53.158;6.766;2023-07-02T09:32:01;5.75;;;2.97;;
51814;SDS011;37874;53.158;6.766;2023-07-02T09:34:34;5.25;;;2.50;;
51814;SDS011;37874;53.158;6.766;2023-07-02T09:37:01;7.10;;;2.80;;
51814;SDS011;37874;53.158;6.766;2023-07-02T09:39:28;7.38;;;2.70;;
51814;SDS011;37874;53.158;6.766;2023-07-02T09:41:56;8.15;;;3.10;;
51814;SDS011;37874;53.158;6.766;2023-07-02T09:49:33;4.93;;;2.50;;
51814;SDS011;37874;53.158;6.766;2023-07-02T09:52:14;5.57;;;2.38;;
51814;SDS011;37874;53.158;6.766;2023-07-02T09:54:41;6.25;;;2.42;;
51814;SDS011;37874;53.158;6.766;2023-07-02T09:57:07;6.38;;;2.55;;
51814;SDS011;37874;53.158;6.766;2023-07-02T09:59:32;5.10;;;2.40;;
51814;SDS011;37874;53.158;6.766;2023-07-02T10:01:58;6.63;;;2.30;;
51814;SDS011;37874;53.158;6.766;2023-07-02T10:04:24;6.25;;;2.80;;
51814;SDS011;37874;53.158;6.766;2023-07-02T10:06:56;6.75;;;2.25;;
51814;SDS011;37874;53.158;6.766;2023-07-02T10:09:35;6.13;;;2.70;;
51814;SDS011;37874;53.158;6.766;2023-07-02T10:12:24;4.35;;;2.40;;
51814;SDS011;37874;53.158;6.766;2023-07-02T10:14:56;5.82;;;2.30;;
51814;SDS011;37874;53.158;6.766;2023-07-02T10:17:30;4.43;;;2.28;;
51814;SDS011;37874;53.158;6.766;2023-07-02T10:19:58;5.47;;;2.20;;
51814;SDS011;37874;53.158;6.766;2023-07-02T10:22:41;6.03;;;2.40;;
51814;SDS011;37874;53.158;6.766;2023-07-02T10:25:12;6.22;;;2.78;;
51814;SDS011;37874;53.158;6.766;2023-07-02T10:27:48;4.75;;;2.28;;
51814;SDS011;37874;53.158;6.766;2023-07-02T10:30:14;4.25;;;2.10;;
51814;SDS011;37874;53.158;6.766;2023-07-02T10:32:39;4.93;;;2.60;;
51814;SDS011;37874;53.158;6.766;2023-07-02T10:35:15;6.90;;;2.80;;
51814;SDS011;37874;53.158;6.766;2023-07-02T10:37:41;6.43;;;2.60;;
51814;SDS011;37874;53.158;6.766;2023-07-02T10:40:07;4.97;;;2.25;;
51814;SDS011;37874;53.158;6.766;2023-07-02T10:42:44;5.50;;;2.35;;
51814;SDS011;37874;53.158;6.766;2023-07-02T10:45:10;6.15;;;2.30;;
51814;SDS011;37874;53.158;6.766;2023-07-02T10:47:39;5.60;;;2.30;;
51814;SDS011;37874;53.158;6.766;2023-07-02T10:50:15;4.18;;;1.92;;
51814;SDS011;37874;53.158;6.766;2023-07-02T10:52:41;6.70;;;2.17;;
51814;SDS011;37874;53.158;6.766;2023-07-02T10:55:07;5.25;;;2.25;;
51814;SDS011;37874;53.158;6.766;2023-07-02T10:57:33;7.18;;;2.47;;
51814;SDS011;37874;53.158;6.766;2023-07-02T11:00:05;5.32;;;2.20;;
51814;SDS011;37874;53.158;6.766;2023-07-02T11:02:36;6.15;;;2.50;;
51814;SDS011;37874;53.158;6.766;2023-07-02T11:05:02;6.63;;;2.60;;
51814;SDS011;37874;53.158;6.766;2023-07-02T11:07:31;6.25;;;2.15;;
51814;SDS011;37874;53.158;6.766;2023-07-02T11:09:57;4.32;;;2.20;;
51814;SDS011;37874;53.158;6.766;2023-07-02T11:12:29;5.03;;;2.05;;
51814;SDS011;37874;53.158;6.766;2023-07-02T11:14:55;6.28;;;2.25;;
51814;SDS011;37874;53.158;6.766;2023-07-02T11:17:33;4.70;;;2.20;;
51814;SDS011;37874;53.158;6.766;2023-07-02T11:19:58;6.13;;;2.00;;
51814;SDS011;37874;53.158;6.766;2023-07-02T11:22:33;5.50;;;2.10;;
51814;SDS011;37874;53.158;6.766;2023-07-02T11:27:35;5.28;;;2.00;;
51814;SDS011;37874;53.158;6.766;2023-07-02T11:30:00;4.25;;;2.10;;
51814;SDS011;37874;53.158;6.766;2023-07-02T11:32:26;5.65;;;2.10;;
51814;SDS011;37874;53.158;6.766;2023-07-02T11:34:55;6.05;;;2.15;;
51814;SDS011;37874;53.158;6.766;2023-07-02T11:37:21;6.07;;;2.45;;
51814;SDS011;37874;53.158;6.766;2023-07-02T11:39:47;4.13;;;1.95;;
51814;SDS011;37874;53.158;6.766;2023-07-02T11:42:13;4.80;;;2.00;;
51814;SDS011;37874;53.158;6.766;2023-07-02T11:44:38;4.40;;;1.90;;
51814;SDS011;37874;53.158;6.766;2023-07-02T11:47:05;4.05;;;1.73;;
51814;SDS011;37874;53.158;6.766;2023-07-02T11:49:30;5.38;;;2.33;;
51814;SDS011;37874;53.158;6.766;2023-07-02T11:51:56;5.68;;;1.90;;
51814;SDS011;37874;53.158;6.766;2023-07-02T11:54:22;4.68;;;2.30;;
51814;SDS011;37874;53.158;6.766;2023-07-02T11:56:47;4.93;;;1.85;;
51814;SDS011;37874;53.158;6.766;2023-07-02T11:59:13;6.45;;;2.20;;
51814;SDS011;37874;53.158;6.766;2023-07-02T12:01:40;5.88;;;2.30;;
51814;SDS011;37874;53.158;6.766;2023-07-02T12:04:05;3.83;;;1.60;;
51814;SDS011;37874;53.158;6.766;2023-07-02T12:06:32;5.35;;;1.88;;
51814;SDS011;37874;53.158;6.766;2023-07-02T12:08:58;4.65;;;1.77;;
51814;SDS011;37874;53.158;6.766;2023-07-02T12:11:24;5.10;;;2.00;;
51814;SDS011;37874;53.158;6.766;2023-07-02T12:13:50;5.50;;;2.00;;
51814;SDS011;37874;53.158;6.766;2023-07-02T12:16:15;5.95;;;1.95;;
51814;SDS011;37874;53.158;6.766;2023-07-02T12:18:41;4.43;;;1.73;;
51814;SDS011;37874;53.158;6.766;2023-07-02T12:21:06;5.15;;;1.80;;
51814;SDS011;37874;53.158;6.766;2023-07-02T12:23:32;4.20;;;1.77;;
51814;SDS011;37874;53.158;6.766;2023-07-02T12:25:57;4.55;;;2.20;;
51814;SDS011;37874;53.158;6.766;2023-07-02T12:28:23;4.85;;;2.00;;
51814;SDS011;37874;53.158;6.766;2023-07-02T12:30:49;5.13;;;2.00;;
51814;SDS011;37874;53.158;6.766;2023-07-02T12:33:14;3.95;;;1.75;;
51814;SDS011;37874;53.158;6.766;2023-07-02T12:35:40;6.10;;;1.90;;
51814;SDS011;37874;53.158;6.766;2023-07-02T12:38:05;5.55;;;2.25;;
51814;SDS011;37874;53.158;6.766;2023-07-02T12:40:33;5.00;;;1.77;;
51814;SDS011;37874;53.158;6.766;2023-07-02T12:42:59;5.07;;;1.88;;
51814;SDS011;37874;53.158;6.766;2023-07-02T12:45:24;4.15;;;1.92;;
51814;SDS011;37874;53.158;6.766;2023-07-02T12:47:50;5.97;;;2.03;;
51814;SDS011;37874;53.158;6.766;2023-07-02T12:50:15;5.18;;;2.10;;
51814;SDS011;37874;53.158;6.766;2023-07-02T12:52:41;3.15;;;1.58;;
51814;SDS011;37874;53.158;6.766;2023-07-02T12:55:07;4.28;;;1.70;;
51814;SDS011;37874;53.158;6.766;2023-07-02T12:57:33;6.40;;;2.35;;
51814;SDS011;37874;53.158;6.766;2023-07-02T12:59:59;4.80;;;1.70;;
51814;SDS011;37874;53.158;6.766;2023-07-02T13:02:25;5.10;;;1.80;;
51814;SDS011;37874;53.158;6.766;2023-07-02T13:04:50;6.20;;;1.92;;
51814;SDS011;37874;53.158;6.766;2023-07-02T13:07:16;5.72;;;2.08;;
51814;SDS011;37874;53.158;6.766;2023-07-02T13:09:42;5.45;;;2.00;;
51814;SDS011;37874;53.158;6.766;2023-07-02T13:12:09;7.15;;;2.40;;
51814;SDS011;37874;53.158;6.766;2023-07-02T13:14:35;4.60;;;1.75;;
51814;SDS011;37874;53.158;6.766;2023-07-02T13:17:01;4.40;;;1.90;;
51814;SDS011;37874;53.158;6.766;2023-07-02T13:19:28;4.18;;;1.90;;
51814;SDS011;37874;53.158;6.766;2023-07-02T13:21:53;5.47;;;1.92;;
51814;SDS011;37874;53.158;6.766;2023-07-02T13:24:19;4.85;;;2.25;;
51814;SDS011;37874;53.158;6.766;2023-07-02T13:26:45;3.63;;;1.90;;
51814;SDS011;37874;53.158;6.766;2023-07-02T13:29:10;4.60;;;2.03;;
51814;SDS011;37874;53.158;6.766;2023-07-02T13:31:36;4.97;;;2.15;;
51814;SDS011;37874;53.158;6.766;2023-07-02T13:34:02;4.22;;;2.15;;
51814;SDS011;37874;53.158;6.766;2023-07-02T13:36:27;5.07;;;2.30;;
51814;SDS011;37874;53.158;6.766;2023-07-02T13:38:56;5.75;;;2.38;;
51814;SDS011;37874;53.158;6.766;2023-07-02T13:41:21;5.03;;;2.13;;
51814;SDS011;37874;53.158;6.766;2023-07-02T13:43:47;5.90;;;2.63;;
51814;SDS011;37874;53.158;6.766;2023-07-02T13:46:12;4.85;;;2.30;;
51814;SDS011;37874;53.158;6.766;2023-07-02T13:48:38;8.30;;;2.50;;
51814;SDS011;37874;53.158;6.766;2023-07-02T13:51:04;6.65;;;2.42;;
51814;SDS011;37874;53.158;6.766;2023-07-02T13:53:30;4.35;;;2.22;;
51814;SDS011;37874;53.158;6.766;2023-07-02T13:55:56;6.78;;;2.10;;
51814;SDS011;37874;53.158;6.766;2023-07-02T13:58:22;5.65;;;2.17;;
51814;SDS011;37874;53.158;6.766;2023-07-02T14:00:48;6.30;;;2.53;;
51814;SDS011;37874;53.158;6.766;2023-07-02T14:03:14;6.72;;;2.58;;
51814;SDS011;37874;53.158;6.766;2023-07-02T14:05:40;4.70;;;2.58;;
51814;SDS011;37874;53.158;6.766;2023-07-02T14:08:05;6.25;;;2.40;;
51814;SDS011;37874;53.158;6.766;2023-07-02T14:10:31;5.32;;;2.53;;
51814;SDS011;37874;53.158;6.766;2023-07-02T14:12:57;5.45;;;2.55;;
51814;SDS011;37874;53.158;6.766;2023-07-02T14:15:23;5.57;;;2.47;;
51814;SDS011;37874;53.158;6.766;2023-07-02T14:17:50;5.65;;;2.60;;
51814;SDS011;37874;53.158;6.766;2023-07-02T14:20:15;5.50;;;2.55;;
51814;SDS011;37874;53.158;6.766;2023-07-02T14:22:41;5.78;;;2.50;;
51814;SDS011;37874;53.158;6.766;2023-07-02T14:25:07;6.18;;;2.75;;
51814;SDS011;37874;53.158;6.766;2023-07-02T14:27:33;6.55;;;3.10;;
51814;SDS011;37874;53.158;6.766;2023-07-02T14:29:59;5.95;;;2.80;;
51814;SDS011;37874;53.158;6.766;2023-07-02T14:32:26;6.28;;;2.80;;
51814;SDS011;37874;53.158;6.766;2023-07-02T14:34:51;7.63;;;3.13;;
51814;SDS011;37874;53.158;6.766;2023-07-02T14:37:17;5.50;;;2.47;;
51814;SDS011;37874;53.158;6.766;2023-07-02T14:39:43;5.97;;;2.60;;
51814;SDS011;37874;53.158;6.766;2023-07-02T14:42:08;6.97;;;2.65;;
51814;SDS011;37874;53.158;6.766;2023-07-02T14:44:34;6.25;;;2.55;;
51814;SDS011;37874;53.158;6.766;2023-07-02T14:46:59;4.97;;;2.50;;
51814;SDS011;37874;53.158;6.766;2023-07-02T14:49:25;7.10;;;3.30;;
51814;SDS011;37874;53.158;6.766;2023-07-02T14:51:50;6.88;;;3.40;;
51814;SDS011;37874;53.158;6.766;2023-07-02T14:54:17;6.75;;;2.67;;
51814;SDS011;37874;53.158;6.766;2023-07-02T14:56:43;6.90;;;3.03;;
51814;SDS011;37874;53.158;6.766;2023-07-02T14:59:08;6.57;;;2.97;;